Miles City, MT

3:09 AM MDT on August 20, 2014 (GMT -0600)
Wiley | Change Station
CLOSE
Current Station
Airport
Location: Miles City,
Elevation: 2628 ft
Nearby Weather Stations

Elev 2628 ft 46.43 °N, 105.88 °W | Updated 16 minutes ago

Clear
Clear
69 °F
Feels Like 69 °F
N
7
Wind Variable Wind from SSE

Today
High -- | Low -- °F
--% Chance of Precip.
Yesterday
High -- | Low -- °F
Precip. -- in
6:08 AM 8:04 PM
Waning Crescent, 23% visible
Pressure 29.56 in
Visibility 10.0 miles
Clouds Clear
Dew Point 52 °F
Humidity 54%
Rainfall 0.00 in
Snow Depth Not available.
UV 0 out of 12
Pollen 9.60 out of 12
Air Quality Not available.
Flu Activity Not available.
METAR KMLS 200853Z AUTO 16006KT 10SM CLR 21/11 A2963 RMK AO2 SLP008 T02060111 55000

More Conditions Fewer Conditions

Pressure 29.56 in
Visibility 10.0 miles
Clouds Clear
Dew Point 52 °F
Humidity 54%
Rainfall 0.00 in
Snow Depth Not available.
UV 0 out of 12
Pollen 9.60 out of 12
Air Quality Not available.
Flu Activity Not available.
METAR KMLS 200853Z AUTO 16006KT 10SM CLR 21/11 A2963 RMK AO2 SLP008 T02060111 55000

More Conditions Fewer Conditions

10-Day Weather Forecast

Almanac

Astronomy

Aug. 20, 2014 Rise Set
Actual Time 6:08 AM MDT 8:04 PM MDT
Civil Twilight 5:36 AM MDT 8:36 PM MDT
Nautical Twilight 4:56 AM MDT 9:15 PM MDT
Astronomical Twilight 4:12 AM MDT 9:59 PM MDT
Moon 1:44 AM MDT 4:57 PM MDT
Length of Visible Light 15h 00m
Length of Day
13h 55m
Tomorrow will be 3m 3s shorter.
Waning Crescent, 23% of the Moon is Illuminated
Today
Waning Crescent
Aug 25
New
Sep 2
First Quarter
Sep 8
Full
Sep 15
Last Quarter

Today's Extremes

State Highs State Lows

Community

WunderPhotos

Upload Photos

1,745,604 photos uploaded!

Nearby

Snow Depth

Station Depth Elevation
Crystal Lake 0 in 6050 ft
Cole Creek 0 in 7850 ft
Burnt Mountain 0 in 5880 ft
Placer Basin 0 in 8830 ft
White Mill 1 in 8700 ft

Earthquake Activity

City Distance Mag. Time & Date
No recent earthquake activity has been reported nearby.
Minimum magnitude displayed is 2.5.

Coastal Water Temperatures

Place Temperature
No Stations Reporting

Nearby Weather Stations